Time;durP1;ratioP1;P1;durP2;ratioP2;P2;SDS_P1;SDS_P2;PMS_P1;PMS_P2;Temp;Humidity;BMP_temperature;BMP_pressure;BME280_temperature;BME280_humidity;BME280_pressure;Samples;Min_cycle;Max_cycle;Signal;HPM_P1;HPM_P2
2021/10/17 00:00:15;;;;;;;;;;;10.90;99.90;;;;;;5095788;28;19942;-80
2021/10/17 00:02:46;;;;;;;;;;;10.90;99.90;;;;;;5096306;28;19967;-81
2021/10/17 00:05:16;;;;;;;;;;;11.00;99.90;;;;;;5095167;28;19928;-82
2021/10/17 00:07:47;;;;;;;;;;;11.00;99.90;;;;;;5096511;28;19935;-81
2021/10/17 00:10:16;;;;;;;;;;;11.00;99.90;;;;;;5096305;28;19951;-80
2021/10/17 00:12:48;;;;;;;;;;;11.10;99.90;;;;;;5096088;28;19924;-81
2021/10/17 00:15:15;;;;;;;;;;;11.10;99.90;;;;;;5096033;28;20371;-81
2021/10/17 00:17:43;;;;;;;;;;;11.10;99.90;;;;;;5095993;28;19924;-82
2021/10/17 00:20:12;;;;;;;;;;;11.10;99.90;;;;;;5096238;28;19924;-81
2021/10/17 00:22:43;;;;;;;;;;;11.10;99.90;;;;;;5096047;28;20259;-81
2021/10/17 00:25:12;;;;;;;;;;;11.20;99.90;;;;;;5095077;28;20291;-82
2021/10/17 00:27:42;;;;;;;;;;;11.20;99.90;;;;;;5095871;28;20003;-80
2021/10/17 00:30:11;;;;;;;;;;;11.20;99.90;;;;;;5095832;28;19924;-81
2021/10/17 00:32:42;;;;;;;;;;;11.20;99.90;;;;;;5095735;28;19934;-82
2021/10/17 00:35:13;;;;;;;;;;;11.30;99.90;;;;;;5095693;28;19935;-81
2021/10/17 00:37:41;;;;;;;;;;;11.30;99.90;;;;;;5095577;28;19989;-82
2021/10/17 00:40:10;;;;;;;;;;;11.30;99.90;;;;;;5095780;28;19928;-81
2021/10/17 00:42:38;;;;;;;;;;;11.30;99.90;;;;;;5095605;28;19930;-80
2021/10/17 00:45:06;;;;;;;;;;;11.30;99.90;;;;;;5095571;28;19928;-80
2021/10/17 00:47:36;;;;;;;;;;;11.30;99.90;;;;;;5095716;28;19938;-83
2021/10/17 00:50:03;;;;;;;;;;;11.40;99.90;;;;;;5095514;28;19950;-83
2021/10/17 00:52:31;;;;;;;;;;;11.40;99.90;;;;;;5096194;28;19924;-85
2021/10/17 00:54:58;;;;;;;;;;;11.40;99.90;;;;;;5097695;28;19939;-76
2021/10/17 00:57:25;;;;;;;;;;;11.40;99.90;;;;;;5095579;28;19924;-77
2021/10/17 00:59:52;;;;;;;;;;;11.40;99.90;;;;;;5095922;28;20229;-77
2021/10/17 01:02:19;;;;;;;;;;;11.40;99.90;;;;;;5094716;28;19924;-84
2021/10/17 01:04:47;;;;;;;;;;;11.40;99.90;;;;;;5095418;28;19924;-80
2021/10/17 01:07:15;;;;;;;;;;;11.40;99.90;;;;;;5095159;28;20336;-81
2021/10/17 01:09:43;;;;;;;;;;;11.40;99.90;;;;;;5095346;28;19934;-81
2021/10/17 01:12:11;;;;;;;;;;;11.40;99.90;;;;;;5095240;28;19940;-81
2021/10/17 01:14:39;;;;;;;;;;;11.40;99.90;;;;;;5095256;28;19949;-81
2021/10/17 01:17:09;;;;;;;;;;;11.50;99.90;;;;;;5095277;28;19924;-81
2021/10/17 01:19:40;;;;;;;;;;;11.40;99.90;;;;;;5094284;28;19971;-81
2021/10/17 01:22:10;;;;;;;;;;;11.50;99.90;;;;;;5095236;28;19934;-80
2021/10/17 01:24:38;;;;;;;;;;;11.40;99.90;;;;;;5095111;28;20355;-78
2021/10/17 01:27:06;;;;;;;;;;;11.40;99.90;;;;;;5095229;28;19924;-87
2021/10/17 01:29:34;;;;;;;;;;;11.40;99.90;;;;;;5095092;28;19943;-83
2021/10/17 01:32:02;;;;;;;;;;;11.40;99.90;;;;;;5094948;28;19928;-80
2021/10/17 01:34:30;;;;;;;;;;;11.40;99.90;;;;;;5094863;28;19930;-80
2021/10/17 01:36:58;;;;;;;;;;;11.40;99.90;;;;;;5094992;28;19931;-80
2021/10/17 01:39:28;;;;;;;;;;;11.40;99.90;;;;;;5094614;28;19936;-81
2021/10/17 01:41:56;;;;;;;;;;;11.40;99.90;;;;;;5095147;28;19936;-83
2021/10/17 01:44:26;;;;;;;;;;;11.40;99.90;;;;;;5095063;28;19935;-80
2021/10/17 01:46:53;;;;;;;;;;;11.40;99.90;;;;;;5094894;28;19935;-82
2021/10/17 01:49:21;;;;;;;;;;;11.40;99.90;;;;;;5094892;28;19935;-78
2021/10/17 01:51:49;;;;;;;;;;;11.40;99.90;;;;;;5094615;28;19928;-84
2021/10/17 01:54:16;;;;;;;;;;;11.40;99.90;;;;;;5095002;28;19931;-84
2021/10/17 01:56:46;;;;;;;;;;;11.40;99.90;;;;;;5095048;28;20255;-85
2021/10/17 01:59:14;;;;;;;;;;;11.40;99.90;;;;;;5094968;28;19936;-84
2021/10/17 02:01:43;;;;;;;;;;;11.40;99.90;;;;;;5095220;28;20260;-84
2021/10/17 02:04:14;;;;;;;;;;;11.30;99.90;;;;;;5094700;28;19935;-83
2021/10/17 02:06:42;;;;;;;;;;;11.30;99.90;;;;;;5095032;28;19985;-83
2021/10/17 02:09:09;;;;;;;;;;;11.30;99.90;;;;;;5094918;28;19923;-83
2021/10/17 02:11:40;;;;;;;;;;;11.30;99.90;;;;;;5094752;28;19977;-84
2021/10/17 02:14:08;;;;;;;;;;;11.30;99.90;;;;;;5094767;28;20317;-83
2021/10/17 02:16:40;;;;;;;;;;;11.30;99.90;;;;;;5094591;28;19930;-82
2021/10/17 02:19:08;;;;;;;;;;;11.30;99.90;;;;;;5094938;28;19924;-83
2021/10/17 02:21:39;;;;;;;;;;;11.30;99.90;;;;;;5094925;28;20257;-82
2021/10/17 02:24:06;;;;;;;;;;;11.30;99.90;;;;;;5095034;28;19977;-82
2021/10/17 02:26:34;;;;;;;;;;;11.30;99.90;;;;;;5094662;28;19924;-82
2021/10/17 02:29:02;;;;;;;;;;;11.30;99.90;;;;;;5097744;28;20287;-83
2021/10/17 02:31:32;;;;;;;;;;;11.30;99.90;;;;;;5097940;28;19924;-83
2021/10/17 02:34:00;;;;;;;;;;;11.30;99.90;;;;;;5098267;28;19934;-84
2021/10/17 02:36:28;;;;;;;;;;;11.30;99.90;;;;;;5097843;28;19924;-84
2021/10/17 02:38:56;;;;;;;;;;;11.30;99.90;;;;;;5097807;28;19924;-85
2021/10/17 02:41:23;;;;;;;;;;;11.30;99.90;;;;;;5097969;28;19934;-85
2021/10/17 02:43:51;;;;;;;;;;;11.30;99.90;;;;;;5097895;28;19924;-84
2021/10/17 02:46:19;;;;;;;;;;;11.30;99.90;;;;;;5098075;28;19939;-84
2021/10/17 02:48:49;;;;;;;;;;;11.30;99.90;;;;;;5097666;28;19924;-85
2021/10/17 02:51:15;;;;;;;;;;;11.30;99.90;;;;;;5097648;28;19924;-86
2021/10/17 02:53:42;;;;;;;;;;;11.20;99.90;;;;;;5097795;28;19924;-85
2021/10/17 02:56:09;;;;;;;;;;;11.30;99.90;;;;;;5097684;28;19928;-83
2021/10/17 02:58:36;;;;;;;;;;;11.30;99.90;;;;;;5096906;28;20352;-84
2021/10/17 03:01:03;;;;;;;;;;;11.20;99.90;;;;;;5097692;28;19947;-85
2021/10/17 03:03:30;;;;;;;;;;;11.20;99.90;;;;;;5097797;28;20233;-86
2021/10/17 03:05:58;;;;;;;;;;;11.30;99.90;;;;;;5097511;28;19935;-87
2021/10/17 03:08:25;;;;;;;;;;;11.30;99.90;;;;;;5097458;28;19934;-86
2021/10/17 03:10:51;;;;;;;;;;;11.30;99.90;;;;;;5097294;28;19924;-86
2021/10/17 03:13:18;;;;;;;;;;;11.30;99.90;;;;;;5097424;28;19928;-86
2021/10/17 03:15:45;;;;;;;;;;;11.30;99.90;;;;;;5097512;28;19924;-85
2021/10/17 03:18:12;;;;;;;;;;;11.30;99.90;;;;;;5097454;28;19924;-86
2021/10/17 03:20:39;;;;;;;;;;;11.30;99.90;;;;;;5097280;28;19928;-87
2021/10/17 03:23:07;;;;;;;;;;;11.20;99.90;;;;;;5097085;28;20249;-87
2021/10/17 03:25:34;;;;;;;;;;;11.30;99.90;;;;;;5097050;28;19927;-87
2021/10/17 03:28:01;;;;;;;;;;;11.20;99.90;;;;;;5097154;28;19939;-88
2021/10/17 03:30:27;;;;;;;;;;;11.30;99.90;;;;;;5097165;28;19924;-88
2021/10/17 03:32:54;;;;;;;;;;;11.30;99.90;;;;;;5097126;28;19924;-88
2021/10/17 03:35:21;;;;;;;;;;;11.30;99.90;;;;;;5097005;28;19930;-88
2021/10/17 03:37:48;;;;;;;;;;;11.20;99.90;;;;;;5096539;28;20268;-87
2021/10/17 03:40:16;;;;;;;;;;;11.30;99.90;;;;;;5096958;28;20251;-87
2021/10/17 03:42:43;;;;;;;;;;;11.30;99.90;;;;;;5096690;28;19924;-88
2021/10/17 03:45:10;;;;;;;;;;;11.30;99.90;;;;;;5096990;28;19934;-88
2021/10/17 03:47:37;;;;;;;;;;;11.30;99.90;;;;;;5096979;28;19924;-88
2021/10/17 03:50:04;;;;;;;;;;;11.30;99.90;;;;;;5096744;28;19924;-88
2021/10/17 03:52:31;;;;;;;;;;;11.30;99.90;;;;;;5096598;28;20121;-88
2021/10/17 03:54:58;;;;;;;;;;;11.30;99.90;;;;;;5096580;28;19935;-88
2021/10/17 03:57:26;;;;;;;;;;;11.30;99.90;;;;;;5096767;28;19935;-88
2021/10/17 03:59:53;;;;;;;;;;;11.30;99.90;;;;;;5096450;28;20259;-88
2021/10/17 04:02:20;;;;;;;;;;;11.30;99.90;;;;;;5096583;28;19935;-88
2021/10/17 04:04:47;;;;;;;;;;;11.30;99.90;;;;;;5096512;28;19924;-87
2021/10/17 04:07:13;;;;;;;;;;;11.30;99.90;;;;;;5096431;28;19935;-87
2021/10/17 04:09:40;;;;;;;;;;;11.30;99.90;;;;;;5096425;28;19935;-88
2021/10/17 04:12:07;;;;;;;;;;;11.30;99.90;;;;;;5096197;28;20253;-87
2021/10/17 04:14:35;;;;;;;;;;;11.30;99.90;;;;;;5096232;28;19925;-87
2021/10/17 04:17:02;;;;;;;;;;;11.30;99.90;;;;;;5096143;28;19924;-88
2021/10/17 04:19:29;;;;;;;;;;;11.30;99.90;;;;;;5096140;28;20356;-87
2021/10/17 04:21:56;;;;;;;;;;;11.30;99.90;;;;;;5095971;28;20344;-87
2021/10/17 04:24:23;;;;;;;;;;;11.30;99.90;;;;;;5095969;28;19934;-87
2021/10/17 04:26:49;;;;;;;;;;;11.30;99.90;;;;;;5096238;28;19925;-87
2021/10/17 04:29:16;;;;;;;;;;;11.30;99.90;;;;;;5096009;28;19924;-87
2021/10/17 04:31:45;;;;;;;;;;;11.30;99.90;;;;;;5095718;28;20336;-86
2021/10/17 04:34:11;;;;;;;;;;;11.30;99.90;;;;;;5095832;28;19924;-87
2021/10/17 04:36:38;;;;;;;;;;;11.30;99.90;;;;;;5095853;28;19931;-87
2021/10/17 04:39:05;;;;;;;;;;;11.30;99.90;;;;;;5095591;28;20293;-88
2021/10/17 04:41:32;;;;;;;;;;;11.30;99.90;;;;;;5095670;28;19934;-87
2021/10/17 04:43:59;;;;;;;;;;;11.30;99.90;;;;;;5095573;28;19935;-87
2021/10/17 04:46:26;;;;;;;;;;;11.30;99.90;;;;;;5095664;28;19931;-87
2021/10/17 04:48:54;;;;;;;;;;;11.30;99.90;;;;;;5095726;28;19924;-88
2021/10/17 04:51:21;;;;;;;;;;;11.30;99.90;;;;;;5094918;28;19924;-87
2021/10/17 04:53:48;;;;;;;;;;;11.30;99.90;;;;;;5095490;28;19924;-87
2021/10/17 04:56:15;;;;;;;;;;;11.30;99.90;;;;;;5095811;28;19924;-87
2021/10/17 04:58:42;;;;;;;;;;;11.40;99.90;;;;;;5095651;28;19924;-88
2021/10/17 05:01:09;;;;;;;;;;;11.40;99.90;;;;;;5095682;28;19924;-88
2021/10/17 05:03:35;;;;;;;;;;;11.30;99.90;;;;;;5095445;28;19934;-88
2021/10/17 05:06:04;;;;;;;;;;;11.40;99.90;;;;;;5095312;28;20378;-88
2021/10/17 05:08:31;;;;;;;;;;;11.40;99.90;;;;;;5095343;28;19924;-89
2021/10/17 05:10:58;;;;;;;;;;;11.40;99.90;;;;;;5095470;28;19924;-89
2021/10/17 05:13:25;;;;;;;;;;;11.40;99.90;;;;;;5095451;28;19924;-89
2021/10/17 05:15:52;;;;;;;;;;;11.40;99.90;;;;;;5095413;28;19924;-88
2021/10/17 05:18:19;;;;;;;;;;;11.40;99.90;;;;;;5095206;28;19934;-89
2021/10/17 05:20:45;;;;;;;;;;;11.40;99.90;;;;;;5095223;28;19924;-89
2021/10/17 05:23:15;;;;;;;;;;;11.40;99.90;;;;;;5095226;28;19928;-89
2021/10/17 05:25:42;;;;;;;;;;;11.40;99.90;;;;;;5095401;28;20027;-88
2021/10/17 05:28:09;;;;;;;;;;;11.40;99.90;;;;;;5095279;28;19934;-89
2021/10/17 05:30:36;;;;;;;;;;;11.40;99.90;;;;;;5095454;28;20371;-88
2021/10/17 05:33:03;;;;;;;;;;;11.40;99.90;;;;;;5095042;28;20307;-89
2021/10/17 05:35:30;;;;;;;;;;;11.50;99.90;;;;;;5095023;28;19932;-89
2021/10/17 05:37:57;;;;;;;;;;;11.40;99.90;;;;;;5094912;28;19924;-89
2021/10/17 05:40:25;;;;;;;;;;;11.40;99.90;;;;;;5095068;28;19924;-89
2021/10/17 05:42:52;;;;;;;;;;;11.50;99.90;;;;;;5095138;28;19924;-89
2021/10/17 05:45:19;;;;;;;;;;;11.50;99.90;;;;;;5094875;28;19924;-88
2021/10/17 05:47:46;;;;;;;;;;;11.50;99.90;;;;;;5095162;28;19934;-88
2021/10/17 05:50:13;;;;;;;;;;;11.50;99.90;;;;;;5094893;28;19928;-89
2021/10/17 05:52:39;;;;;;;;;;;11.50;99.90;;;;;;5095136;28;19924;-89
2021/10/17 05:55:06;;;;;;;;;;;11.50;99.90;;;;;;5095117;28;19924;-90
2021/10/17 05:57:36;;;;;;;;;;;11.50;99.90;;;;;;5095029;28;19924;-89
2021/10/17 06:00:04;;;;;;;;;;;11.50;99.90;;;;;;5095398;28;19931;-89
2021/10/17 06:02:31;;;;;;;;;;;11.50;99.90;;;;;;5097598;28;20152;-90
2021/10/17 06:04:58;;;;;;;;;;;11.50;99.90;;;;;;5098948;28;19924;-89
2021/10/17 06:07:24;;;;;;;;;;;11.50;99.90;;;;;;5098631;28;19930;-89
2021/10/17 06:09:51;;;;;;;;;;;11.50;99.90;;;;;;5098684;28;19932;-90
2021/10/17 06:12:18;;;;;;;;;;;11.50;99.90;;;;;;5098725;28;19932;-89
2021/10/17 06:14:46;;;;;;;;;;;11.50;99.90;;;;;;5098834;28;19924;-89
2021/10/17 06:17:13;;;;;;;;;;;11.50;99.90;;;;;;5098507;28;19924;-90
2021/10/17 06:19:40;;;;;;;;;;;11.40;99.90;;;;;;5098838;28;19950;-89
2021/10/17 06:22:07;;;;;;;;;;;11.50;99.90;;;;;;5098792;28;19989;-89
2021/10/17 06:24:34;;;;;;;;;;;11.40;99.90;;;;;;5098563;28;19950;-90
2021/10/17 06:27:01;;;;;;;;;;;11.40;99.90;;;;;;5098410;28;19932;-89
2021/10/17 06:29:28;;;;;;;;;;;11.40;99.90;;;;;;5098269;28;19942;-90
2021/10/17 06:31:56;;;;;;;;;;;11.40;99.90;;;;;;5098151;28;19935;-90
2021/10/17 06:34:23;;;;;;;;;;;11.40;99.90;;;;;;5098378;28;19924;-90
2021/10/17 06:36:50;;;;;;;;;;;11.40;99.90;;;;;;5098199;28;19924;-90
2021/10/17 06:39:17;;;;;;;;;;;11.40;99.90;;;;;;5097932;28;19924;-89
2021/10/17 06:41:44;;;;;;;;;;;11.40;99.90;;;;;;5098182;28;19934;-90
2021/10/17 06:44:10;;;;;;;;;;;11.40;99.90;;;;;;5098228;28;20340;-90
2021/10/17 06:46:37;;;;;;;;;;;11.50;99.90;;;;;;5098032;28;19924;-90
2021/10/17 06:49:06;;;;;;;;;;;11.50;99.90;;;;;;5098177;28;19924;-90
2021/10/17 06:51:32;;;;;;;;;;;11.50;99.90;;;;;;5098140;28;19928;-89
2021/10/17 06:53:59;;;;;;;;;;;11.50;99.90;;;;;;5098015;28;19924;-89
2021/10/17 06:56:26;;;;;;;;;;;11.50;99.90;;;;;;5097850;28;19932;-89
2021/10/17 06:58:53;;;;;;;;;;;11.50;99.90;;;;;;5097608;28;19934;-88
2021/10/17 07:01:20;;;;;;;;;;;11.50;99.90;;;;;;5097688;28;19939;-89
2021/10/17 07:03:47;;;;;;;;;;;11.50;99.90;;;;;;5097785;28;19977;-89
2021/10/17 07:06:15;;;;;;;;;;;11.50;99.90;;;;;;5097663;28;19934;-89
2021/10/17 07:08:42;;;;;;;;;;;11.40;99.90;;;;;;5097548;28;19950;-88
2021/10/17 07:11:09;;;;;;;;;;;11.50;99.90;;;;;;5097408;28;19942;-89
2021/10/17 07:13:35;;;;;;;;;;;11.50;99.90;;;;;;5096711;28;19924;-89
2021/10/17 07:16:02;;;;;;;;;;;11.50;99.90;;;;;;5097720;28;19924;-89
2021/10/17 07:18:29;;;;;;;;;;;11.50;99.90;;;;;;5097349;28;19946;-89
2021/10/17 07:20:56;;;;;;;;;;;11.50;99.90;;;;;;5097386;28;19930;-89
2021/10/17 07:23:24;;;;;;;;;;;11.50;99.90;;;;;;5097215;28;19924;-89
2021/10/17 07:25:51;;;;;;;;;;;11.50;99.90;;;;;;5097348;28;19930;-89
2021/10/17 07:28:19;;;;;;;;;;;11.50;99.90;;;;;;5097272;28;19935;-89
2021/10/17 07:30:48;;;;;;;;;;;11.50;99.90;;;;;;5098514;28;19924;-89
2021/10/17 07:33:16;;;;;;;;;;;11.50;99.90;;;;;;5104950;28;19960;-90
2021/10/17 07:35:44;;;;;;;;;;;12.10;99.90;;;;;;5103618;28;19923;-83
2021/10/17 07:38:13;;;;;;;;;;;11.50;99.90;;;;;;5096763;28;20006;-86
2021/10/17 07:40:42;;;;;;;;;;;11.60;99.90;;;;;;5096783;28;19924;-86
2021/10/17 07:43:10;;;;;;;;;;;11.60;99.90;;;;;;5096693;28;20240;-87
2021/10/17 07:45:39;;;;;;;;;;;11.60;99.90;;;;;;5097069;28;20259;-87
2021/10/17 07:48:09;;;;;;;;;;;11.60;99.90;;;;;;5097005;28;19946;-86
2021/10/17 07:50:38;;;;;;;;;;;11.60;99.90;;;;;;5097042;28;19924;-87
2021/10/17 07:53:06;;;;;;;;;;;11.60;99.90;;;;;;5096492;28;19924;-87
2021/10/17 07:55:34;;;;;;;;;;;11.60;99.90;;;;;;5096463;28;19928;-86
2021/10/17 07:58:04;;;;;;;;;;;11.60;99.90;;;;;;5096477;28;19934;-86
2021/10/17 08:00:31;;;;;;;;;;;11.70;99.90;;;;;;5096407;28;19939;-87
2021/10/17 08:02:59;;;;;;;;;;;11.70;99.90;;;;;;5096563;28;19925;-86
2021/10/17 08:05:27;;;;;;;;;;;11.70;99.90;;;;;;5096543;28;19924;-87
2021/10/17 08:07:55;;;;;;;;;;;11.70;99.90;;;;;;5096309;28;19924;-87
2021/10/17 08:10:23;;;;;;;;;;;11.70;99.90;;;;;;5096099;28;19924;-87
2021/10/17 08:12:52;;;;;;;;;;;11.70;99.90;;;;;;5096170;28;20336;-87
2021/10/17 08:15:24;;;;;;;;;;;11.70;99.90;;;;;;5096427;28;19934;-87
2021/10/17 08:17:54;;;;;;;;;;;11.70;99.90;;;;;;5096500;28;19924;-87
2021/10/17 08:20:22;;;;;;;;;;;11.70;99.90;;;;;;5096061;28;20316;-87
2021/10/17 08:22:52;;;;;;;;;;;11.80;99.90;;;;;;5095863;28;20344;-88
2021/10/17 08:25:20;;;;;;;;;;;11.80;99.90;;;;;;5095335;28;19935;-87
2021/10/17 08:27:54;;;;;;;;;;;11.80;99.90;;;;;;5096084;28;19934;-87
2021/10/17 08:30:22;;;;;;;;;;;11.80;99.90;;;;;;5096096;28;19935;-87
2021/10/17 08:32:50;;;;;;;;;;;11.80;99.90;;;;;;5095579;28;19935;-87
2021/10/17 08:35:21;;;;;;;;;;;11.90;99.90;;;;;;5095667;28;19935;-87
2021/10/17 08:37:52;;;;;;;;;;;11.90;99.90;;;;;;5095680;28;19974;-87
2021/10/17 08:40:19;;;;;;;;;;;11.90;99.90;;;;;;5095798;28;19967;-88
2021/10/17 08:42:48;;;;;;;;;;;11.90;99.90;;;;;;5095512;28;19930;-87
2021/10/17 08:45:16;;;;;;;;;;;11.90;99.90;;;;;;5095500;28;19924;-86
2021/10/17 08:47:45;;;;;;;;;;;11.90;99.90;;;;;;5095489;28;19928;-86
2021/10/17 08:50:13;;;;;;;;;;;12.00;99.90;;;;;;5095893;28;19928;-86
2021/10/17 08:52:42;;;;;;;;;;;12.00;99.90;;;;;;5095739;28;19924;-86
2021/10/17 08:55:12;;;;;;;;;;;12.00;99.90;;;;;;5095588;28;19924;-86
2021/10/17 08:57:40;;;;;;;;;;;12.00;99.90;;;;;;5095621;28;19971;-86
2021/10/17 09:00:24;;;;;;;;;;;12.00;99.90;;;;;;5095481;28;19924;-86
2021/10/17 09:02:54;;;;;;;;;;;12.00;99.90;;;;;;5095364;28;19975;-86
2021/10/17 09:05:32;;;;;;;;;;;12.10;99.90;;;;;;5095200;28;19989;-86
2021/10/17 09:08:00;;;;;;;;;;;12.10;99.90;;;;;;5095224;28;19924;-86
2021/10/17 09:10:29;;;;;;;;;;;12.10;99.90;;;;;;5095140;28;19930;-86
2021/10/17 09:13:06;;;;;;;;;;;12.10;99.90;;;;;;5095125;28;19924;-86
2021/10/17 09:15:34;;;;;;;;;;;12.10;99.90;;;;;;5095408;28;19939;-86
2021/10/17 09:18:15;;;;;;;;;;;12.20;99.90;;;;;;5095064;28;20019;-86
2021/10/17 09:20:54;;;;;;;;;;;12.20;99.90;;;;;;5095218;28;19924;-86
2021/10/17 09:23:38;;;;;;;;;;;12.20;99.90;;;;;;5095022;28;19931;-86
2021/10/17 09:26:17;;;;;;;;;;;12.20;99.90;;;;;;5093899;28;19931;-86
2021/10/17 09:28:45;;;;;;;;;;;12.20;99.90;;;;;;5095077;28;20233;-85
2021/10/17 09:31:16;;;;;;;;;;;12.20;99.90;;;;;;5095065;28;19923;-85
2021/10/17 09:33:47;;;;;;;;;;;12.30;99.90;;;;;;5094926;28;20369;-85
2021/10/17 09:36:18;;;;;;;;;;;12.30;99.90;;;;;;5096130;28;19934;-85
2021/10/17 09:38:50;;;;;;;;;;;12.30;99.90;;;;;;5098911;28;19934;-84
2021/10/17 09:41:19;;;;;;;;;;;12.30;99.90;;;;;;5099166;28;19924;-85
2021/10/17 09:43:55;;;;;;;;;;;12.30;99.90;;;;;;5099222;28;20326;-85
2021/10/17 09:46:23;;;;;;;;;;;12.30;99.90;;;;;;5098926;28;19924;-85
2021/10/17 09:48:56;;;;;;;;;;;12.30;99.90;;;;;;5098869;28;20243;-85
2021/10/17 09:51:25;;;;;;;;;;;12.30;99.90;;;;;;5099059;28;19928;-85
2021/10/17 09:53:54;;;;;;;;;;;12.30;99.90;;;;;;5099022;28;19977;-84
2021/10/17 09:56:32;;;;;;;;;;;12.30;99.90;;;;;;5098928;28;19935;-84
2021/10/17 09:59:00;;;;;;;;;;;12.30;99.90;;;;;;5098782;28;19924;-84
2021/10/17 10:01:27;;;;;;;;;;;12.30;99.90;;;;;;5098996;28;19924;-84
2021/10/17 10:03:56;;;;;;;;;;;12.40;99.90;;;;;;5098773;28;19928;-85
2021/10/17 10:06:25;;;;;;;;;;;12.40;99.90;;;;;;5098696;28;19935;-84
2021/10/17 10:08:55;;;;;;;;;;;12.50;99.90;;;;;;5098676;28;19924;-84
2021/10/17 10:11:22;;;;;;;;;;;12.60;99.90;;;;;;5098571;28;20340;-84
2021/10/17 10:13:51;;;;;;;;;;;12.60;99.90;;;;;;5098314;28;19924;-84
2021/10/17 10:16:17;;;;;;;;;;;12.70;99.90;;;;;;5098335;28;20340;-82
2021/10/17 10:18:44;;;;;;;;;;;12.70;99.90;;;;;;5098296;28;19924;-84
2021/10/17 10:21:12;;;;;;;;;;;12.80;99.90;;;;;;5098358;28;19924;-84
2021/10/17 10:23:39;;;;;;;;;;;12.80;99.90;;;;;;5098424;28;20014;-82
2021/10/17 10:26:06;;;;;;;;;;;12.90;99.90;;;;;;5098177;28;19924;-83
2021/10/17 10:28:34;;;;;;;;;;;12.90;99.90;;;;;;5097999;28;19924;-83
2021/10/17 10:31:00;;;;;;;;;;;12.90;99.90;;;;;;5098084;28;19939;-83
2021/10/17 10:33:32;;;;;;;;;;;12.90;99.90;;;;;;5098041;28;19924;-83
2021/10/17 10:36:03;;;;;;;;;;;12.90;99.90;;;;;;5098069;28;19986;-82
2021/10/17 10:38:45;;;;;;;;;;;13.00;99.90;;;;;;5097915;28;19925;-82
2021/10/17 10:41:16;;;;;;;;;;;13.00;99.90;;;;;;5097744;28;19924;-84
2021/10/17 10:43:43;;;;;;;;;;;13.10;99.90;;;;;;5097026;28;19928;-84
2021/10/17 10:46:10;;;;;;;;;;;13.10;99.90;;;;;;5097912;28;19924;-84
2021/10/17 10:48:45;;;;;;;;;;;13.20;99.90;;;;;;5096572;28;19979;-84
2021/10/17 10:51:14;;;;;;;;;;;13.20;99.90;;;;;;5097728;28;19924;-83
2021/10/17 10:53:48;;;;;;;;;;;13.20;99.90;;;;;;5097544;28;19934;-83
2021/10/17 10:56:35;;;;;;;;;;;13.20;99.90;;;;;;5097584;28;19924;-84
2021/10/17 10:59:05;;;;;;;;;;;13.20;99.90;;;;;;5097746;28;19931;-83
2021/10/17 11:01:51;;;;;;;;;;;13.30;99.90;;;;;;5097477;28;19924;-83
2021/10/17 11:04:33;;;;;;;;;;;13.30;99.90;;;;;;5097496;28;20359;-82
2021/10/17 11:07:18;;;;;;;;;;;13.30;99.90;;;;;;5097280;28;19924;-77
2021/10/17 11:09:45;;;;;;;;;;;13.30;99.90;;;;;;5097439;28;19924;-77
2021/10/17 11:12:12;;;;;;;;;;;13.30;99.90;;;;;;5097276;28;20280;-77
2021/10/17 11:14:40;;;;;;;;;;;13.30;99.90;;;;;;5097242;28;19923;-77
2021/10/17 11:17:07;;;;;;;;;;;13.30;99.90;;;;;;5096647;28;19924;-77
2021/10/17 11:19:34;;;;;;;;;;;13.30;99.90;;;;;;5097423;28;19928;-77
2021/10/17 11:22:01;;;;;;;;;;;13.30;99.90;;;;;;5097315;28;20274;-77
2021/10/17 11:24:28;;;;;;;;;;;13.30;99.90;;;;;;5097106;28;20386;-77
2021/10/17 11:27:11;;;;;;;;;;;13.30;99.90;;;;;;5097200;28;19941;-78
2021/10/17 11:29:41;;;;;;;;;;;13.30;99.90;;;;;;5097140;28;19931;-79
2021/10/17 11:32:08;;;;;;;;;;;13.30;99.90;;;;;;5097243;28;19947;-78
2021/10/17 11:34:36;;;;;;;;;;;13.40;99.90;;;;;;5096983;28;19925;-77
2021/10/17 11:37:18;;;;;;;;;;;13.40;99.90;;;;;;5096982;28;20260;-78
2021/10/17 11:39:55;;;;;;;;;;;13.40;99.90;;;;;;5096814;28;19925;-78
2021/10/17 11:42:22;;;;;;;;;;;13.50;99.90;;;;;;5096656;28;19924;-79
2021/10/17 11:44:51;;;;;;;;;;;13.60;99.90;;;;;;5096816;28;20363;-78
2021/10/17 11:47:18;;;;;;;;;;;13.70;99.90;;;;;;5096876;28;19931;-79
2021/10/17 11:49:45;;;;;;;;;;;13.80;99.90;;;;;;5096806;28;19934;-77
2021/10/17 11:52:12;;;;;;;;;;;13.90;99.90;;;;;;5096588;28;19924;-79
2021/10/17 11:54:42;;;;;;;;;;;14.00;99.90;;;;;;5096581;28;19935;-78
2021/10/17 11:57:09;;;;;;;;;;;14.00;99.90;;;;;;5095823;28;20190;-79
2021/10/17 11:59:36;;;;;;;;;;;14.10;99.90;;;;;;5096385;28;19950;-79
2021/10/17 12:02:04;;;;;;;;;;;14.00;99.90;;;;;;5096307;28;20348;-78
2021/10/17 12:04:41;;;;;;;;;;;14.10;99.90;;;;;;5096458;28;19930;-79
2021/10/17 12:07:09;;;;;;;;;;;14.10;99.90;;;;;;5096286;28;20352;-78
2021/10/17 12:09:39;;;;;;;;;;;14.10;99.90;;;;;;5095780;28;20245;-79
2021/10/17 12:12:07;;;;;;;;;;;14.10;99.90;;;;;;5096178;28;19931;-79
2021/10/17 12:14:34;;;;;;;;;;;14.20;99.90;;;;;;5096203;28;19938;-78
2021/10/17 12:17:03;;;;;;;;;;;14.20;99.90;;;;;;5096211;28;20018;-81
2021/10/17 12:19:31;;;;;;;;;;;14.20;99.90;;;;;;5096232;28;19986;-81
2021/10/17 12:21:58;;;;;;;;;;;14.20;99.90;;;;;;5096175;28;19928;-82
2021/10/17 12:24:26;;;;;;;;;;;14.20;99.90;;;;;;5095957;28;19938;-81
2021/10/17 12:26:55;;;;;;;;;;;14.20;99.90;;;;;;5095934;28;19924;-81
2021/10/17 12:29:24;;;;;;;;;;;14.20;99.90;;;;;;5095827;28;19924;-81
2021/10/17 12:31:52;;;;;;;;;;;14.20;99.90;;;;;;5095869;28;19924;-81
2021/10/17 12:34:35;;;;;;;;;;;14.20;99.90;;;;;;5095937;28;19934;-80
2021/10/17 12:37:03;;;;;;;;;;;14.20;99.90;;;;;;5095893;28;19924;-80
2021/10/17 12:39:30;;;;;;;;;;;14.20;99.90;;;;;;5095504;28;20304;-80
2021/10/17 12:41:57;;;;;;;;;;;14.20;99.90;;;;;;5095844;28;20263;-81
2021/10/17 12:44:24;;;;;;;;;;;14.20;99.90;;;;;;5095920;28;19934;-80
2021/10/17 12:47:01;;;;;;;;;;;14.20;99.90;;;;;;5095620;28;20271;-81
2021/10/17 12:49:36;;;;;;;;;;;14.20;99.90;;;;;;5095755;28;20272;-80
2021/10/17 12:52:08;;;;;;;;;;;14.20;99.90;;;;;;5095746;28;19924;-80
2021/10/17 12:54:35;;;;;;;;;;;14.20;99.90;;;;;;5095581;28;19928;-80
2021/10/17 12:57:03;;;;;;;;;;;14.20;99.90;;;;;;5095457;28;19934;-79
2021/10/17 12:59:30;;;;;;;;;;;14.20;99.90;;;;;;5095488;28;19934;-78
2021/10/17 13:02:03;;;;;;;;;;;14.20;99.90;;;;;;5094625;28;19988;-79
2021/10/17 13:04:37;;;;;;;;;;;14.20;99.90;;;;;;5095488;28;19928;-79
2021/10/17 13:07:06;;;;;;;;;;;14.20;99.90;;;;;;5095453;28;20260;-79
2021/10/17 13:09:40;;;;;;;;;;;14.20;99.90;;;;;;5095490;28;20322;-79
2021/10/17 13:12:13;;;;;;;;;;;14.20;99.90;;;;;;5094766;28;19924;-80
2021/10/17 13:14:48;;;;;;;;;;;14.20;99.90;;;;;;5095271;28;19924;-78
2021/10/17 13:17:15;;;;;;;;;;;14.30;99.90;;;;;;5095249;28;19928;-79
2021/10/17 13:19:42;;;;;;;;;;;14.30;99.90;;;;;;5095213;28;20260;-78
2021/10/17 13:22:10;;;;;;;;;;;14.40;99.90;;;;;;5095221;28;19924;-78
2021/10/17 13:24:37;;;;;;;;;;;14.40;99.90;;;;;;5095415;28;19931;-79
2021/10/17 13:27:04;;;;;;;;;;;14.40;99.90;;;;;;5095254;28;19934;-77
2021/10/17 13:29:32;;;;;;;;;;;14.40;99.90;;;;;;5097781;28;19936;-80
2021/10/17 13:32:00;;;;;;;;;;;14.40;99.90;;;;;;5098868;28;19981;-73
2021/10/17 13:34:27;;;;;;;;;;;14.50;99.90;;;;;;5095948;28;19954;-76
2021/10/17 13:36:54;;;;;;;;;;;14.50;99.90;;;;;;5095248;28;19924;-78
2021/10/17 13:39:22;;;;;;;;;;;14.50;99.90;;;;;;5094968;28;19925;-78
2021/10/17 13:41:49;;;;;;;;;;;14.50;99.90;;;;;;5095092;28;19924;-74
2021/10/17 13:44:19;;;;;;;;;;;14.50;99.90;;;;;;5094969;28;19928;-77
2021/10/17 13:46:47;;;;;;;;;;;14.60;99.90;;;;;;5094184;28;20010;-77
2021/10/17 13:49:16;;;;;;;;;;;14.60;99.90;;;;;;5094948;28;20378;-77
2021/10/17 13:51:44;;;;;;;;;;;14.70;99.90;;;;;;5095022;28;19924;-76
2021/10/17 13:54:13;;;;;;;;;;;14.70;99.90;;;;;;5095104;28;19924;-76
2021/10/17 13:56:44;;;;;;;;;;;14.80;99.90;;;;;;5090419;28;19985;-78
2021/10/17 13:59:14;;;;;;;;;;;14.80;99.90;;;;;;5093907;28;19924;-77
2021/10/17 14:01:41;;;;;;;;;;;14.90;99.90;;;;;;5094856;28;19935;-78
2021/10/17 14:04:09;;;;;;;;;;;14.80;99.90;;;;;;5094756;28;20255;-77
2021/10/17 14:06:37;;;;;;;;;;;14.90;99.90;;;;;;5094965;28;19939;-76
2021/10/17 14:09:04;;;;;;;;;;;14.90;99.90;;;;;;5094798;28;19924;-76
2021/10/17 14:11:32;;;;;;;;;;;14.90;99.90;;;;;;5094954;28;19928;-76
2021/10/17 14:14:07;;;;;;;;;;;14.90;99.90;;;;;;5094873;28;19924;-76
2021/10/17 14:16:35;;;;;;;;;;;14.90;99.90;;;;;;5095036;28;19970;-76
2021/10/17 14:19:03;;;;;;;;;;;15.00;99.90;;;;;;5094618;28;19930;-77
2021/10/17 14:21:34;;;;;;;;;;;14.90;99.90;;;;;;5094637;28;20693;-77
2021/10/17 14:24:02;;;;;;;;;;;14.90;99.90;;;;;;5098283;28;20019;-78